Terminal Aerodrome Forecast
Issued by NWS Upton, NY

Home | Current Version | Previous Version | Text Only | Print | Product List | Glossary On
Versions: 1 2 3 4 5 6 7 8 9 10 11 12 13 14 15 16 17 18 19 20 21 22 23 24 25 26 27 28 29 30 31 32 33 34
137
FTUS41 KOKX 301740
TAFLGA
TAF
KLGA 301740Z 3018/3118 18008KT P6SM SCT020 BKN090 OVC250
      TEMPO 3018/3019 BKN020
     FM302100 18012KT P6SM BKN050
     FM310000 22006KT P6SM VCSH BKN050
     FM310600 VRB04KT P6SM SCT005 BKN050
      TEMPO 3108/3111 4SM BR BKN005
     FM311100 35005KT P6SM SCT090 BKN250=

USA.gov is the U.S. government's official web portal to all federal, state and local government web resources and services.